createdAt,value
2022-12-08T00:00:49.609Z,3.70
2022-12-08T00:03:16.656Z,3.70
2022-12-08T00:06:05.574Z,3.70
2022-12-08T00:08:51.216Z,3.70
2022-12-08T00:11:18.043Z,3.70
2022-12-08T00:13:44.783Z,3.70
2022-12-08T00:16:11.639Z,3.70
2022-12-08T00:18:38.437Z,3.70
2022-12-08T00:21:05.275Z,3.70
2022-12-08T00:23:31.935Z,3.70
2022-12-08T00:26:05.081Z,3.70
2022-12-08T00:28:32.652Z,3.70
2022-12-08T00:30:59.365Z,3.70
2022-12-08T00:33:27.813Z,3.70
2022-12-08T00:35:54.586Z,3.70
2022-12-08T00:38:21.255Z,3.70
2022-12-08T00:40:48.177Z,3.70
2022-12-08T00:43:14.848Z,3.70
2022-12-08T00:45:41.688Z,3.70
2022-12-08T00:48:08.412Z,3.70
2022-12-08T00:50:35.109Z,3.70
2022-12-08T00:53:01.822Z,3.70
2022-12-08T00:55:28.512Z,3.70
2022-12-08T00:57:55.213Z,3.70
2022-12-08T01:00:22.133Z,3.70
2022-12-08T01:02:48.952Z,3.70
2022-12-08T01:05:15.834Z,3.70
2022-12-08T01:07:42.559Z,3.70
2022-12-08T01:10:09.409Z,3.70
2022-12-08T01:12:36.148Z,3.70
2022-12-08T01:15:03.139Z,3.70
2022-12-08T01:17:29.846Z,3.70
2022-12-08T01:19:58.004Z,3.70
2022-12-08T01:22:24.988Z,3.70
2022-12-08T01:24:51.663Z,3.70
2022-12-08T01:27:18.345Z,3.70
2022-12-08T01:29:45.032Z,3.70
2022-12-08T01:32:11.701Z,3.70
2022-12-08T01:34:38.364Z,3.70
2022-12-08T01:37:05.043Z,3.70
2022-12-08T01:39:31.780Z,3.70
2022-12-08T01:41:58.521Z,3.70
2022-12-08T01:44:25.204Z,3.70
2022-12-08T01:46:51.941Z,3.70
2022-12-08T01:49:36.853Z,3.70
2022-12-08T01:52:14.477Z,3.70
2022-12-08T01:54:47.970Z,3.70
2022-12-08T02:00:11.310Z,3.70
2022-12-08T02:03:02.789Z,3.70
2022-12-08T02:05:54.544Z,3.70
2022-12-08T02:08:21.690Z,3.70
2022-12-08T02:10:49.688Z,3.70
2022-12-08T02:13:17.193Z,3.80
2022-12-08T02:16:08.167Z,3.70
2022-12-08T02:18:43.663Z,3.70
2022-12-08T02:21:19.683Z,3.60
2022-12-08T02:24:09.411Z,3.50
2022-12-08T02:26:44.955Z,3.50
2022-12-08T02:29:23.715Z,3.50
2022-12-08T02:32:19.620Z,3.40
2022-12-08T02:35:03.425Z,3.30
2022-12-08T02:37:39.429Z,3.30
2022-12-08T02:40:30.458Z,3.30
2022-12-08T02:43:02.803Z,3.20
2022-12-08T02:45:39.586Z,3.20
2022-12-08T02:48:06.640Z,3.20
2022-12-08T02:50:34.002Z,3.10
2022-12-08T02:53:02.546Z,3.20
2022-12-08T02:55:31.409Z,3.20
2022-12-08T02:58:11.619Z,3.20
2022-12-08T03:01:02.248Z,3.30
2022-12-08T03:03:47.304Z,3.30
2022-12-08T03:06:31.222Z,3.40
2022-12-08T03:09:04.133Z,3.40
2022-12-08T03:11:37.941Z,3.40
2022-12-08T03:14:05.323Z,3.40
2022-12-08T03:16:34.036Z,3.40
2022-12-08T03:19:07.955Z,3.40
2022-12-08T03:21:35.378Z,3.40
2022-12-08T03:24:02.928Z,3.40
2022-12-08T03:27:00.909Z,3.40
2022-12-08T03:29:28.498Z,3.50
2022-12-08T03:31:57.970Z,3.40
2022-12-08T03:34:26.339Z,3.40
2022-12-08T03:36:53.833Z,3.40
2022-12-08T03:39:20.810Z,3.40
2022-12-08T03:41:48.146Z,3.40
2022-12-08T03:44:15.649Z,3.50
2022-12-08T03:46:43.001Z,3.40
2022-12-08T03:49:09.694Z,3.40
2022-12-08T03:51:36.737Z,3.30
2022-12-08T03:54:03.755Z,3.40
2022-12-08T03:56:33.037Z,3.30
2022-12-08T03:58:59.775Z,3.40
2022-12-08T04:01:27.378Z,3.40
2022-12-08T04:03:54.192Z,3.40
2022-12-08T04:06:21.091Z,3.40
2022-12-08T04:08:48.249Z,3.30
2022-12-08T04:11:14.977Z,3.30
2022-12-08T04:13:42.319Z,3.30
2022-12-08T04:16:09.464Z,3.30
2022-12-08T04:18:36.413Z,3.30
2022-12-08T04:21:03.577Z,3.30
2022-12-08T04:23:30.906Z,3.30
2022-12-08T04:25:57.581Z,3.20
2022-12-08T04:28:24.979Z,3.20
2022-12-08T04:30:51.965Z,3.20
2022-12-08T04:33:19.359Z,3.20
2022-12-08T04:35:46.590Z,3.30
2022-12-08T04:38:13.303Z,3.20
2022-12-08T04:40:40.319Z,3.20
2022-12-08T04:43:07.024Z,3.20
2022-12-08T04:45:34.122Z,3.30
2022-12-08T04:48:01.081Z,3.30
2022-12-08T04:50:28.114Z,3.30
2022-12-08T04:52:55.489Z,3.20
2022-12-08T04:55:22.870Z,3.30
2022-12-08T04:57:50.290Z,3.30
2022-12-08T05:00:17.177Z,3.30
2022-12-08T05:02:43.947Z,3.30
2022-12-08T05:05:10.975Z,3.30
2022-12-08T05:07:37.926Z,3.30
2022-12-08T05:10:05.632Z,3.30
2022-12-08T05:12:33.104Z,3.30
2022-12-08T05:15:00.673Z,3.30
2022-12-08T05:17:28.157Z,3.30
2022-12-08T05:19:54.824Z,3.30
2022-12-08T05:22:21.976Z,3.30
2022-12-08T05:24:48.619Z,3.30
2022-12-08T05:27:15.877Z,3.30
2022-12-08T05:29:42.594Z,3.30
2022-12-08T05:32:09.971Z,3.30
2022-12-08T05:34:37.320Z,3.30
2022-12-08T05:37:04.833Z,3.30
2022-12-08T05:39:32.247Z,3.30
2022-12-08T05:41:59.881Z,3.30
2022-12-08T05:44:27.204Z,3.30
2022-12-08T05:47:35.959Z,3.30
2022-12-08T05:50:03.489Z,3.40
2022-12-08T05:52:30.734Z,3.30
2022-12-08T05:54:57.747Z,3.30
2022-12-08T05:57:24.806Z,3.30
2022-12-08T05:59:52.120Z,3.30
2022-12-08T06:02:19.448Z,3.30
2022-12-08T06:04:50.826Z,3.30
2022-12-08T06:07:17.749Z,3.20
2022-12-08T06:09:45.320Z,3.20
2022-12-08T06:12:12.288Z,3.20
2022-12-08T06:14:39.979Z,3.20
2022-12-08T06:17:06.931Z,3.20
2022-12-08T06:19:33.825Z,3.10
2022-12-08T06:22:00.937Z,3.10
2022-12-08T06:24:28.852Z,3.00
2022-12-08T06:26:56.157Z,3.00
2022-12-08T06:29:22.967Z,2.90
2022-12-08T06:31:50.469Z,2.80
2022-12-08T06:34:17.231Z,2.70
2022-12-08T06:36:44.604Z,2.70
2022-12-08T06:39:11.358Z,2.60
2022-12-08T06:41:58.314Z,2.60
2022-12-08T06:44:25.394Z,2.60
2022-12-08T06:46:52.741Z,2.50
2022-12-08T06:49:20.404Z,2.40
2022-12-08T06:51:47.402Z,2.40
2022-12-08T06:54:14.717Z,2.50
2022-12-08T06:56:42.382Z,2.50
2022-12-08T06:59:10.294Z,2.50
2022-12-08T07:01:38.623Z,2.50
2022-12-08T07:04:06.066Z,2.50
2022-12-08T07:06:33.091Z,2.50
2022-12-08T07:08:59.834Z,2.50
2022-12-08T07:11:27.094Z,2.60
2022-12-08T07:13:56.887Z,2.50
2022-12-08T07:16:24.774Z,2.50
2022-12-08T07:18:52.258Z,2.50
2022-12-08T07:21:19.767Z,2.40
2022-12-08T07:23:49.253Z,2.40
2022-12-08T07:26:18.871Z,2.40
2022-12-08T07:28:45.989Z,2.40
2022-12-08T07:31:20.671Z,2.30
2022-12-08T07:33:48.084Z,2.30
2022-12-08T07:36:15.229Z,2.20
2022-12-08T07:38:42.308Z,2.20
2022-12-08T07:41:19.992Z,2.20
2022-12-08T07:43:46.692Z,2.20
2022-12-08T07:46:14.568Z,2.20
2022-12-08T07:48:41.564Z,2.10
2022-12-08T07:51:08.946Z,2.10
2022-12-08T07:53:35.955Z,2.10
2022-12-08T07:56:07.019Z,2.10
2022-12-08T07:58:34.069Z,2.20
2022-12-08T08:01:01.288Z,2.10
2022-12-08T08:03:28.636Z,2.20
2022-12-08T08:05:55.680Z,2.20
2022-12-08T08:08:23.099Z,2.30
2022-12-08T08:10:50.665Z,2.30
2022-12-08T08:13:17.902Z,2.40
2022-12-08T08:15:45.592Z,2.40
2022-12-08T08:18:12.552Z,2.50
2022-12-08T08:20:39.217Z,2.50
2022-12-08T08:23:06.214Z,2.40
2022-12-08T08:25:33.581Z,2.50
2022-12-08T08:28:00.613Z,2.50
2022-12-08T08:30:27.746Z,2.50
2022-12-08T08:32:55.139Z,2.50
2022-12-08T08:35:22.499Z,2.50
2022-12-08T08:37:49.747Z,2.60
2022-12-08T08:40:17.874Z,2.60
2022-12-08T08:42:52.887Z,2.60
2022-12-08T08:45:20.456Z,2.60
2022-12-08T08:47:47.837Z,2.60
2022-12-08T08:50:14.957Z,2.60
2022-12-08T08:52:42.725Z,2.70
2022-12-08T08:55:10.135Z,2.70
2022-12-08T08:57:36.953Z,2.70
2022-12-08T09:00:05.672Z,2.70
2022-12-08T09:02:32.838Z,2.70
2022-12-08T09:05:00.254Z,2.70
2022-12-08T09:07:27.339Z,2.80
2022-12-08T09:10:01.264Z,2.80
2022-12-08T09:12:28.816Z,2.80
2022-12-08T09:14:56.315Z,2.90
2022-12-08T09:17:23.394Z,2.90
2022-12-08T09:19:50.441Z,3.00
2022-12-08T09:22:17.845Z,3.00
2022-12-08T09:24:45.373Z,3.00
2022-12-08T09:27:12.672Z,3.00
2022-12-08T09:29:39.869Z,3.00
2022-12-08T09:32:07.470Z,3.00
2022-12-08T09:34:34.768Z,3.10
2022-12-08T09:37:02.129Z,3.10
2022-12-08T09:39:29.452Z,3.20
2022-12-08T09:42:04.024Z,3.20
2022-12-08T09:45:08.335Z,3.20
2022-12-08T09:47:42.828Z,3.20
2022-12-08T09:50:30.078Z,3.30
2022-12-08T09:53:16.956Z,3.40
2022-12-08T09:56:00.345Z,3.40
2022-12-08T09:58:53.613Z,3.40
2022-12-08T10:01:21.381Z,3.40
2022-12-08T10:03:48.755Z,3.40
2022-12-08T10:06:22.265Z,3.40
2022-12-08T10:09:22.619Z,3.40
2022-12-08T10:12:27.327Z,3.50
2022-12-08T10:14:56.836Z,3.50
2022-12-08T10:17:35.240Z,3.50
2022-12-08T10:20:16.252Z,3.50
2022-12-08T10:22:45.102Z,3.50
2022-12-08T10:25:21.985Z,3.60
2022-12-08T10:27:50.814Z,3.70
2022-12-08T10:30:19.346Z,3.60
2022-12-08T10:32:50.463Z,3.60
2022-12-08T10:35:17.999Z,3.70
2022-12-08T10:38:01.665Z,3.60
2022-12-08T10:40:30.210Z,3.60
2022-12-08T10:42:57.785Z,3.60
2022-12-08T10:45:31.529Z,3.60
2022-12-08T10:48:16.100Z,3.60
2022-12-08T10:50:43.461Z,3.60
2022-12-08T10:53:14.491Z,3.60
2022-12-08T10:55:45.774Z,3.60
2022-12-08T10:58:40.379Z,3.60
2022-12-08T11:01:11.651Z,3.50
2022-12-08T11:03:57.831Z,3.50
2022-12-08T11:06:28.701Z,3.60
2022-12-08T11:08:57.391Z,3.60
2022-12-08T11:11:38.508Z,3.60
2022-12-08T11:14:08.766Z,3.70
2022-12-08T11:16:35.736Z,3.80
2022-12-08T11:19:10.406Z,3.90
2022-12-08T11:24:32.319Z,3.90
2022-12-08T11:27:03.770Z,3.90
2022-12-08T11:29:34.256Z,4.00
2022-12-08T11:32:03.384Z,4.10
2022-12-08T11:35:03.918Z,4.10
2022-12-08T11:38:13.570Z,4.00
2022-12-08T11:40:45.963Z,4.00
2022-12-08T11:43:16.923Z,4.00
2022-12-08T11:45:44.555Z,4.00
2022-12-08T11:48:15.163Z,4.00
2022-12-08T11:50:45.949Z,4.00
2022-12-08T11:53:35.128Z,4.00
2022-12-08T11:56:10.418Z,4.00
2022-12-08T11:58:57.857Z,4.00
2022-12-08T12:01:25.911Z,4.10
2022-12-08T12:04:10.676Z,4.10
2022-12-08T12:07:25.842Z,4.10
2022-12-08T12:10:00.724Z,4.10
2022-12-08T12:12:51.674Z,4.10
2022-12-08T12:15:28.846Z,4.10
2022-12-08T12:18:16.776Z,4.10
2022-12-08T12:21:45.626Z,4.10
2022-12-08T12:24:25.884Z,4.20
2022-12-08T12:27:17.361Z,4.10
2022-12-08T12:30:01.834Z,4.00
2022-12-08T12:32:44.569Z,4.10
2022-12-08T12:35:17.500Z,4.10
2022-12-08T12:37:51.843Z,4.10
2022-12-08T12:40:25.206Z,4.00
2022-12-08T12:42:54.848Z,4.10
2022-12-08T12:46:02.436Z,4.10
2022-12-08T12:48:29.874Z,4.20
2022-12-08T12:50:57.653Z,4.20
2022-12-08T12:53:25.847Z,4.10
2022-12-08T12:55:56.599Z,4.10
2022-12-08T12:58:38.125Z,4.20
2022-12-08T13:01:13.700Z,4.10
2022-12-08T13:03:51.935Z,4.10
2022-12-08T13:09:21.896Z,4.00
2022-12-08T13:11:56.086Z,4.00
2022-12-08T13:14:45.217Z,4.10
2022-12-08T13:17:13.535Z,4.00
2022-12-08T13:19:40.761Z,4.10
2022-12-08T13:22:51.106Z,4.10
2022-12-08T13:25:39.788Z,4.20
2022-12-08T13:28:19.974Z,4.20
2022-12-08T13:30:48.136Z,4.20
2022-12-08T13:33:22.166Z,4.20
2022-12-08T13:36:00.581Z,4.20
2022-12-08T13:38:29.901Z,4.10
2022-12-08T13:40:56.589Z,4.10
2022-12-08T13:43:43.424Z,4.10
2022-12-08T13:47:03.248Z,4.00
2022-12-08T13:50:49.592Z,4.00
2022-12-08T13:56:10.671Z,4.10
2022-12-08T13:57:31.381Z,4.00
2022-12-08T14:00:07.442Z,4.10
2022-12-08T14:02:47.696Z,4.00
2022-12-08T14:05:19.450Z,4.00
2022-12-08T14:08:01.707Z,4.00
2022-12-08T14:10:32.119Z,4.00
2022-12-08T14:13:06.294Z,4.00
2022-12-08T14:15:37.845Z,3.90
2022-12-08T14:18:05.958Z,3.90
2022-12-08T14:20:51.686Z,3.90
2022-12-08T14:23:20.644Z,3.90
2022-12-08T14:25:47.504Z,3.90
2022-12-08T14:28:14.430Z,3.90
2022-12-08T14:30:41.201Z,3.90
2022-12-08T14:33:12.600Z,3.90
2022-12-08T14:35:39.446Z,3.80
2022-12-08T14:38:13.616Z,3.80
2022-12-08T14:40:44.380Z,3.80
2022-12-08T14:43:19.346Z,3.80
2022-12-08T14:45:46.160Z,3.90
2022-12-08T14:48:27.929Z,3.80
2022-12-08T14:50:59.534Z,3.70
2022-12-08T14:53:26.313Z,3.80
2022-12-08T14:55:53.133Z,3.70
2022-12-08T14:58:29.811Z,3.70
2022-12-08T15:00:58.364Z,3.70
2022-12-08T15:03:29.164Z,3.70
2022-12-08T15:05:58.921Z,3.60
2022-12-08T15:08:26.017Z,3.60
2022-12-08T15:11:21.126Z,3.70
2022-12-08T15:13:49.370Z,3.60
2022-12-08T15:16:43.020Z,3.60
2022-12-08T15:19:27.574Z,3.70
2022-12-08T15:21:55.644Z,3.60
2022-12-08T15:24:27.407Z,3.60
2022-12-08T15:26:54.123Z,3.60
2022-12-08T15:29:21.762Z,3.60
2022-12-08T15:31:49.196Z,3.60
2022-12-08T15:34:15.949Z,3.50
2022-12-08T15:36:43.014Z,3.60
2022-12-08T15:39:36.824Z,3.60
2022-12-08T15:42:04.347Z,3.60
2022-12-08T15:44:32.597Z,3.60
2022-12-08T15:46:59.879Z,3.50
2022-12-08T15:49:26.731Z,3.50
2022-12-08T15:51:59.435Z,3.50
2022-12-08T15:54:34.698Z,3.50
2022-12-08T15:59:48.043Z,3.40
2022-12-08T16:02:20.850Z,3.40
2022-12-08T16:07:37.850Z,3.40
2022-12-08T16:10:06.506Z,3.50
2022-12-08T16:15:53.625Z,3.40
2022-12-08T16:18:27.525Z,3.30
2022-12-08T16:21:22.891Z,3.30
2022-12-08T16:23:44.248Z,3.30
2022-12-08T16:29:02.629Z,3.40
2022-12-08T16:31:29.419Z,3.30
2022-12-08T16:33:56.306Z,3.30
2022-12-08T16:36:22.988Z,3.30
2022-12-08T16:38:49.633Z,3.30
2022-12-08T16:41:35.832Z,3.30
2022-12-08T16:44:03.525Z,3.30
2022-12-08T16:46:30.261Z,3.30
2022-12-08T16:48:58.766Z,3.30
2022-12-08T16:51:27.358Z,3.30
2022-12-08T16:53:55.422Z,3.30
2022-12-08T16:56:26.191Z,3.30
2022-12-08T16:58:57.298Z,3.30
2022-12-08T17:01:24.175Z,3.30
2022-12-08T17:04:07.550Z,3.30
2022-12-08T17:06:37.611Z,3.30
2022-12-08T17:09:04.406Z,3.30
2022-12-08T17:11:36.181Z,3.30
2022-12-08T17:14:05.953Z,3.30
2022-12-08T17:16:32.715Z,3.30
2022-12-08T17:18:59.440Z,3.30
2022-12-08T17:21:26.116Z,3.30
2022-12-08T17:23:55.170Z,3.20
2022-12-08T17:26:31.451Z,3.30
2022-12-08T17:29:05.088Z,3.30
2022-12-08T17:31:34.021Z,3.20
2022-12-08T17:34:01.655Z,3.20
2022-12-08T17:36:28.624Z,3.20
2022-12-08T17:38:56.277Z,3.20
2022-12-08T17:41:22.953Z,3.20
2022-12-08T17:43:49.652Z,3.20
2022-12-08T17:46:17.902Z,3.20
2022-12-08T17:48:44.668Z,3.20
2022-12-08T17:51:11.387Z,3.10
2022-12-08T17:53:40.263Z,3.20
2022-12-08T17:56:08.278Z,3.20
2022-12-08T17:58:34.985Z,3.20
2022-12-08T18:01:01.661Z,3.20
2022-12-08T18:03:28.336Z,3.20
2022-12-08T18:05:54.985Z,3.20
2022-12-08T18:08:21.718Z,3.20
2022-12-08T18:10:48.445Z,3.20
2022-12-08T18:13:15.269Z,3.10
2022-12-08T18:15:42.011Z,3.20
2022-12-08T18:18:08.892Z,3.20
2022-12-08T18:20:37.387Z,3.20
2022-12-08T18:23:04.121Z,3.20
2022-12-08T18:25:30.793Z,3.20
2022-12-08T18:27:57.467Z,3.20
2022-12-08T18:30:24.287Z,3.20
2022-12-08T18:32:57.049Z,3.20
2022-12-08T18:35:24.050Z,3.20
2022-12-08T18:37:50.726Z,3.10
2022-12-08T18:40:17.785Z,3.10
2022-12-08T18:42:44.572Z,3.20
2022-12-08T18:45:11.361Z,3.20
2022-12-08T18:47:38.916Z,3.20
2022-12-08T18:50:08.217Z,3.20
2022-12-08T18:52:35.074Z,3.20
2022-12-08T18:55:07.053Z,3.20
2022-12-08T18:57:36.245Z,3.20
2022-12-08T19:00:04.583Z,3.10
2022-12-08T19:02:31.772Z,3.10
2022-12-08T19:04:58.580Z,3.00
2022-12-08T19:07:28.466Z,3.00
2022-12-08T19:09:56.062Z,3.00
2022-12-08T19:12:22.839Z,3.10
2022-12-08T19:14:49.668Z,3.10
2022-12-08T19:17:16.363Z,3.20
2022-12-08T19:19:43.082Z,3.20
2022-12-08T19:22:09.800Z,3.20
2022-12-08T19:24:36.632Z,3.20
2022-12-08T19:27:04.205Z,3.20
2022-12-08T19:29:30.877Z,3.30
2022-12-08T19:31:57.633Z,3.30
2022-12-08T19:34:24.302Z,3.30
2022-12-08T19:36:51.033Z,3.30
2022-12-08T19:39:38.081Z,3.20
2022-12-08T19:42:30.671Z,3.20
2022-12-08T19:45:00.267Z,3.10
2022-12-08T19:47:27.021Z,3.10
2022-12-08T19:49:54.915Z,3.10
2022-12-08T19:52:21.645Z,3.10
2022-12-08T19:54:48.298Z,3.20
2022-12-08T19:57:15.901Z,3.20
2022-12-08T19:59:42.572Z,3.20
2022-12-08T20:02:10.646Z,3.20
2022-12-08T20:04:37.400Z,3.20
2022-12-08T20:07:04.212Z,3.20
2022-12-08T20:09:30.983Z,3.20
2022-12-08T20:11:57.732Z,3.20
2022-12-08T20:14:25.170Z,3.20
2022-12-08T20:16:51.907Z,3.10
2022-12-08T20:19:19.094Z,3.10
2022-12-08T20:21:45.931Z,3.00
2022-12-08T20:24:12.700Z,3.00
2022-12-08T20:26:39.405Z,3.00
2022-12-08T20:29:06.170Z,3.00
2022-12-08T20:31:33.511Z,3.00
2022-12-08T20:34:00.588Z,3.00
2022-12-08T20:36:27.451Z,3.00
2022-12-08T20:38:54.425Z,3.00
2022-12-08T20:41:23.132Z,3.00
2022-12-08T20:43:50.243Z,3.00
2022-12-08T20:46:17.490Z,2.90
2022-12-08T20:48:44.346Z,2.90
2022-12-08T20:51:18.421Z,2.90
2022-12-08T20:53:45.338Z,2.90
2022-12-08T20:56:19.940Z,3.00
2022-12-08T20:58:46.797Z,2.90
2022-12-08T21:01:15.231Z,2.90
2022-12-08T21:03:42.770Z,2.90
2022-12-08T21:06:09.674Z,2.80
2022-12-08T21:08:36.508Z,2.80
2022-12-08T21:11:03.477Z,2.80
2022-12-08T21:13:30.207Z,2.70
2022-12-08T21:15:57.218Z,2.80
2022-12-08T21:18:24.457Z,2.80
2022-12-08T21:20:51.573Z,2.80
2022-12-08T21:23:18.359Z,2.80
2022-12-08T21:25:45.835Z,2.80
2022-12-08T21:28:12.684Z,2.80
2022-12-08T21:30:39.862Z,2.70
2022-12-08T21:33:06.740Z,2.80
2022-12-08T21:35:33.534Z,2.80
2022-12-08T21:38:00.555Z,2.70
2022-12-08T21:40:27.401Z,2.70
2022-12-08T21:42:54.168Z,2.70
2022-12-08T21:45:21.096Z,2.60
2022-12-08T21:47:48.399Z,2.60
2022-12-08T21:50:15.821Z,2.60
2022-12-08T21:52:44.012Z,2.60
2022-12-08T21:55:12.159Z,2.60
2022-12-08T21:57:39.591Z,2.50
2022-12-08T22:00:08.353Z,2.50
2022-12-08T22:02:35.350Z,2.40
2022-12-08T22:05:02.510Z,2.30
2022-12-08T22:07:29.316Z,2.30
2022-12-08T22:09:56.222Z,2.20
2022-12-08T22:12:22.981Z,2.10
2022-12-08T22:14:50.989Z,2.00
2022-12-08T22:17:18.619Z,1.90
2022-12-08T22:19:45.995Z,1.90
2022-12-08T22:22:12.889Z,1.80
2022-12-08T22:24:39.761Z,1.80
2022-12-08T22:27:06.454Z,1.80
2022-12-08T22:29:33.170Z,1.70
2022-12-08T22:32:00.101Z,1.60
2022-12-08T22:34:26.969Z,1.60
2022-12-08T22:36:53.775Z,1.60
2022-12-08T22:39:20.573Z,1.60
2022-12-08T22:41:47.478Z,1.60
2022-12-08T22:44:15.144Z,1.50
2022-12-08T22:46:42.126Z,1.50
2022-12-08T22:49:08.860Z,1.40
2022-12-08T22:51:36.586Z,1.40
2022-12-08T22:54:04.065Z,1.40
2022-12-08T22:56:30.815Z,1.40
2022-12-08T22:58:58.013Z,1.40
2022-12-08T23:01:27.243Z,1.40
2022-12-08T23:03:57.650Z,1.30
2022-12-08T23:06:24.785Z,1.30
2022-12-08T23:08:52.180Z,1.30
2022-12-08T23:11:19.133Z,1.40
2022-12-08T23:13:45.905Z,1.40
2022-12-08T23:16:12.734Z,1.40
2022-12-08T23:18:44.007Z,1.30
2022-12-08T23:21:13.151Z,1.30
2022-12-08T23:23:39.843Z,1.20
2022-12-08T23:26:31.783Z,1.20
2022-12-08T23:28:58.648Z,1.20
2022-12-08T23:31:25.823Z,1.20
2022-12-08T23:33:52.961Z,1.20
2022-12-08T23:36:20.038Z,1.20
2022-12-08T23:38:46.728Z,1.30
2022-12-08T23:41:14.289Z,1.30
2022-12-08T23:43:48.933Z,1.30
2022-12-08T23:46:16.154Z,1.30
2022-12-08T23:48:43.306Z,1.30
2022-12-08T23:51:10.139Z,1.20
2022-12-08T23:53:36.916Z,1.10
2022-12-08T23:56:08.282Z,1.10
2022-12-08T23:58:35.170Z,1.00
